createdAt,value
2022-08-05T00:00:23.578Z,19.68
2022-08-05T00:02:53.716Z,19.61
2022-08-05T00:06:02.011Z,19.58
2022-08-05T00:08:32.729Z,19.61
2022-08-05T00:11:00.962Z,19.68
2022-08-05T00:13:38.476Z,19.65
2022-08-05T00:16:09.233Z,19.43
2022-08-05T00:18:39.289Z,19.54
2022-08-05T00:21:08.346Z,19.46
2022-08-05T00:23:46.009Z,19.58
2022-08-05T00:26:22.511Z,19.43
2022-08-05T00:28:51.166Z,19.38
2022-08-05T00:31:53.609Z,19.46
2022-08-05T00:34:55.989Z,19.32
2022-08-05T00:37:11.598Z,19.39
2022-08-05T00:39:57.232Z,19.46
2022-08-05T00:42:33.738Z,19.41
2022-08-05T00:45:01.806Z,19.48
2022-08-05T00:47:53.091Z,19.33
2022-08-05T00:50:17.969Z,19.54
2022-08-05T00:52:46.742Z,19.68
2022-08-05T00:55:15.986Z,19.77
2022-08-05T00:57:58.371Z,19.74
2022-08-05T01:00:28.677Z,19.67
2022-08-05T01:02:56.677Z,19.63
2022-08-05T01:05:24.856Z,19.47
2022-08-05T01:08:41.029Z,19.52
2022-08-05T01:10:52.487Z,19.56
2022-08-05T01:13:27.220Z,19.65
2022-08-05T01:16:20.998Z,19.62
2022-08-05T01:19:00.804Z,19.51
2022-08-05T01:22:01.161Z,19.38
2022-08-05T01:24:50.938Z,19.22
2022-08-05T01:27:32.997Z,19.24
2022-08-05T01:30:04.778Z,19.31
2022-08-05T01:32:45.446Z,19.30
2022-08-05T01:35:52.214Z,19.33
2022-08-05T01:38:06.959Z,19.30
2022-08-05T01:40:35.583Z,19.31
2022-08-05T01:43:04.547Z,19.28
2022-08-05T01:45:42.988Z,19.27
2022-08-05T01:48:12.079Z,19.32
2022-08-05T01:50:51.013Z,19.24
2022-08-05T01:53:57.133Z,19.25
2022-08-05T01:56:13.698Z,19.09
2022-08-05T01:59:03.593Z,19.13
2022-08-05T02:01:39.920Z,19.14
2022-08-05T02:04:11.490Z,19.09
2022-08-05T02:06:40.259Z,19.12
2022-08-05T02:09:14.635Z,19.07
2022-08-05T02:11:52.667Z,19.00
2022-08-05T02:14:28.554Z,18.96
2022-08-05T02:17:03.995Z,18.99
2022-08-05T02:19:46.995Z,18.95
2022-08-05T02:22:25.588Z,18.86
2022-08-05T02:25:00.077Z,18.89
2022-08-05T02:27:57.858Z,18.91
2022-08-05T02:30:18.200Z,18.84
2022-08-05T02:32:50.337Z,18.81
2022-08-05T02:35:27.636Z,18.65
2022-08-05T02:38:00.288Z,18.72
2022-08-05T02:40:31.157Z,18.83
2022-08-05T02:43:00.833Z,18.79
2022-08-05T02:45:52.046Z,18.67
2022-08-05T02:48:19.677Z,18.70
2022-08-05T02:50:58.382Z,18.61
2022-08-05T02:53:27.144Z,18.70
2022-08-05T02:56:00.288Z,18.57
2022-08-05T02:58:31.008Z,18.40
2022-08-05T03:01:02.479Z,18.49
2022-08-05T03:04:04.188Z,18.53
2022-08-05T03:06:53.879Z,18.53
2022-08-05T03:09:15.664Z,18.54
2022-08-05T03:11:54.363Z,18.59
2022-08-05T03:14:25.471Z,18.65
2022-08-05T03:16:54.174Z,18.62
2022-08-05T03:19:34.184Z,18.64
2022-08-05T03:22:04.869Z,18.53
2022-08-05T03:24:33.634Z,18.52
2022-08-05T03:27:02.960Z,18.44
2022-08-05T03:29:45.108Z,18.36
2022-08-05T03:32:30.613Z,18.25
2022-08-05T03:35:00.853Z,18.20
2022-08-05T03:37:28.747Z,17.91
2022-08-05T03:39:59.006Z,18.12
2022-08-05T03:42:32.787Z,18.13
2022-08-05T03:45:01.530Z,18.08
2022-08-05T03:47:35.474Z,18.00
2022-08-05T03:50:10.882Z,17.85
2022-08-05T03:55:00.243Z,17.77
2022-08-05T03:56:04.692Z,17.66
2022-08-05T03:58:31.934Z,17.51
2022-08-05T04:01:04.077Z,17.54
2022-08-05T04:03:38.133Z,17.72
2022-08-05T04:06:08.876Z,17.70
2022-08-05T04:08:38.178Z,17.67
2022-08-05T04:11:10.005Z,17.82
2022-08-05T04:13:50.544Z,17.58
2022-08-05T04:16:25.437Z,17.58
2022-08-05T04:19:00.516Z,17.69
2022-08-05T04:22:08.748Z,17.48
2022-08-05T04:24:19.319Z,17.36
2022-08-05T04:26:50.446Z,17.47
2022-08-05T04:29:18.247Z,17.48
2022-08-05T04:31:48.452Z,17.45
2022-08-05T04:34:32.322Z,17.42
2022-08-05T04:37:03.736Z,17.20
2022-08-05T04:39:33.479Z,17.29
2022-08-05T04:42:03.781Z,17.23
2022-08-05T04:44:31.571Z,17.31
2022-08-05T04:46:59.573Z,17.14
2022-08-05T04:49:39.226Z,17.14
2022-08-05T04:52:17.133Z,17.15
2022-08-05T04:54:46.551Z,16.78
2022-08-05T04:57:14.404Z,16.71
2022-08-05T04:59:42.125Z,16.70
2022-08-05T05:02:37.225Z,16.71
2022-08-05T05:05:03.599Z,16.67
2022-08-05T05:07:56.695Z,16.72
2022-08-05T05:10:29.603Z,16.74
2022-08-05T05:12:57.812Z,16.88
2022-08-05T05:15:59.318Z,16.89
2022-08-05T05:18:28.247Z,17.16
2022-08-05T05:20:59.658Z,17.39
2022-08-05T05:24:02.179Z,17.32
2022-08-05T05:26:17.288Z,17.38
2022-08-05T05:28:45.378Z,17.34
2022-08-05T05:31:13.477Z,17.50
2022-08-05T05:34:02.252Z,17.49
2022-08-05T05:36:29.954Z,17.44
2022-08-05T05:38:59.407Z,17.50
2022-08-05T05:41:40.416Z,17.26
2022-08-05T05:44:34.481Z,17.52
2022-08-05T05:46:58.262Z,17.63
2022-08-05T05:49:26.260Z,17.55
2022-08-05T05:51:54.015Z,17.61
2022-08-05T05:54:50.946Z,17.71
2022-08-05T05:57:13.784Z,17.88
2022-08-05T05:59:41.681Z,18.03
2022-08-05T06:02:11.110Z,17.86
2022-08-05T06:04:38.924Z,18.06
2022-08-05T06:07:06.802Z,18.12
2022-08-05T06:10:01.612Z,17.82
2022-08-05T06:12:23.644Z,18.01
2022-08-05T06:14:54.929Z,18.11
2022-08-05T06:17:30.989Z,18.18
2022-08-05T06:19:59.360Z,18.15
2022-08-05T06:22:29.505Z,17.99
2022-08-05T06:24:58.843Z,18.16
2022-08-05T06:28:11.583Z,18.14
2022-08-05T06:30:19.889Z,18.30
2022-08-05T06:32:50.868Z,18.36
2022-08-05T06:36:03.195Z,18.48
2022-08-05T06:38:11.085Z,18.88
2022-08-05T06:40:42.188Z,19.25
2022-08-05T06:43:57.563Z,19.36
2022-08-05T06:46:03.914Z,19.48
2022-08-05T06:48:44.404Z,19.65
2022-08-05T06:51:29.794Z,19.81
2022-08-05T06:53:58.795Z,19.88
2022-08-05T06:56:28.017Z,20.08
2022-08-05T06:58:55.873Z,19.94
2022-08-05T07:01:27.602Z,19.88
2022-08-05T07:04:00.265Z,20.06
2022-08-05T07:06:28.919Z,20.15
2022-08-05T07:08:56.650Z,20.32
2022-08-05T07:11:31.102Z,20.64
2022-08-05T07:14:20.657Z,20.62
2022-08-05T07:17:59.113Z,20.93
2022-08-05T07:22:36.929Z,21.01
2022-08-05T07:25:21.975Z,20.88
2022-08-05T07:27:57.422Z,21.21
2022-08-05T07:30:32.476Z,21.43
2022-08-05T07:33:01.422Z,21.18
2022-08-05T07:35:55.801Z,21.33
2022-08-05T07:38:34.460Z,20.80
2022-08-05T07:42:06.975Z,20.48
2022-08-05T07:43:55.180Z,20.98
2022-08-05T07:46:26.004Z,21.05
2022-08-05T07:49:01.472Z,20.74
2022-08-05T07:51:37.145Z,20.80
2022-08-05T07:54:11.413Z,20.91
2022-08-05T07:57:01.676Z,20.43
2022-08-05T07:59:38.223Z,20.73
2022-08-05T08:02:15.374Z,20.96
2022-08-05T08:04:46.293Z,21.29
2022-08-05T08:07:15.197Z,21.43
2022-08-05T08:09:43.070Z,21.37
2022-08-05T08:12:30.622Z,21.59
2022-08-05T08:15:02.300Z,21.51
2022-08-05T08:17:30.740Z,21.69
2022-08-05T08:20:22.572Z,21.74
2022-08-05T08:22:52.080Z,21.73
2022-08-05T08:25:27.092Z,21.66
2022-08-05T08:28:18.327Z,21.95
2022-08-05T08:30:49.860Z,22.24
2022-08-05T08:33:19.237Z,21.86
2022-08-05T08:35:52.946Z,22.33
2022-08-05T08:38:35.338Z,22.29
2022-08-05T08:41:11.034Z,22.39
2022-08-05T08:45:24.058Z,22.33
2022-08-05T08:46:34.177Z,22.34
2022-08-05T08:50:03.969Z,22.30
2022-08-05T08:52:05.623Z,22.48
2022-08-05T08:54:36.235Z,22.51
2022-08-05T08:57:06.429Z,22.56
2022-08-05T08:59:41.679Z,22.65
2022-08-05T09:02:19.042Z,22.54
2022-08-05T09:05:15.955Z,23.00
2022-08-05T09:07:40.055Z,23.00
2022-08-05T09:10:27.964Z,22.93
2022-08-05T09:13:05.297Z,23.28
2022-08-05T09:15:36.850Z,23.54
2022-08-05T09:18:08.707Z,23.39
2022-08-05T09:20:38.086Z,23.16
2022-08-05T09:23:10.489Z,23.22
2022-08-05T09:26:01.874Z,23.29
2022-08-05T09:28:34.017Z,23.11
2022-08-05T09:31:22.231Z,23.27
2022-08-05T09:33:56.577Z,23.30
2022-08-05T09:36:27.789Z,23.31
2022-08-05T09:39:03.351Z,23.47
2022-08-05T09:42:01.438Z,23.80
2022-08-05T09:44:36.610Z,23.79
2022-08-05T09:47:15.575Z,23.21
2022-08-05T09:50:00.663Z,23.13
2022-08-05T09:52:32.123Z,23.39
2022-08-05T09:55:55.029Z,23.85
2022-08-05T09:57:49.990Z,23.87
2022-08-05T10:00:24.666Z,23.53
2022-08-05T10:02:54.680Z,23.29
2022-08-05T10:05:26.911Z,23.68
2022-08-05T10:08:34.718Z,23.49
2022-08-05T10:10:53.875Z,23.56
2022-08-05T10:13:43.864Z,23.69
2022-08-05T10:16:34.032Z,24.14
2022-08-05T10:19:08.590Z,23.94
2022-08-05T10:21:40.118Z,23.55
2022-08-05T10:24:13.131Z,23.90
2022-08-05T10:26:49.171Z,24.01
2022-08-05T10:29:23.743Z,23.94
2022-08-05T10:32:53.605Z,24.12
2022-08-05T10:35:00.907Z,24.76
2022-08-05T10:37:40.103Z,24.12
2022-08-05T10:40:22.516Z,24.08
2022-08-05T10:43:02.401Z,24.60
2022-08-05T10:45:40.184Z,24.14
2022-08-05T10:48:40.638Z,23.59
2022-08-05T10:51:23.098Z,23.33
2022-08-05T10:54:01.576Z,23.60
2022-08-05T10:56:31.505Z,23.47
2022-08-05T10:59:11.477Z,24.05
2022-08-05T11:01:55.364Z,23.69
2022-08-05T11:04:31.652Z,24.12
2022-08-05T11:07:08.201Z,23.52
2022-08-05T11:09:46.152Z,23.68
2022-08-05T11:12:50.325Z,24.05
2022-08-05T11:15:21.572Z,24.28
2022-08-05T11:17:57.884Z,24.12
2022-08-05T11:20:39.248Z,24.53
2022-08-05T11:23:57.695Z,25.17
2022-08-05T11:26:28.973Z,24.72
2022-08-05T11:29:11.917Z,24.72
2022-08-05T11:31:57.571Z,25.15
2022-08-05T11:34:54.216Z,25.52
2022-08-05T11:38:37.400Z,25.25
2022-08-05T11:41:14.019Z,25.56
2022-08-05T11:44:04.645Z,24.98
2022-08-05T11:46:36.474Z,24.28
2022-08-05T11:49:08.045Z,24.56
2022-08-05T11:51:44.002Z,25.14
2022-08-05T11:54:24.478Z,25.34
2022-08-05T11:57:08.310Z,25.50
2022-08-05T11:59:49.901Z,25.92
2022-08-05T12:02:30.319Z,26.13
2022-08-05T12:05:00.740Z,26.17
2022-08-05T12:08:03.142Z,25.96
2022-08-05T12:10:24.952Z,25.57
2022-08-05T12:13:16.577Z,25.54
2022-08-05T12:15:49.829Z,26.02
2022-08-05T12:18:32.873Z,25.90
2022-08-05T12:21:11.256Z,26.35
2022-08-05T12:23:42.965Z,25.46
2022-08-05T12:26:11.073Z,26.20
2022-08-05T12:28:39.327Z,25.82
2022-08-05T12:31:09.576Z,26.06
2022-08-05T12:33:38.848Z,26.67
2022-08-05T12:36:08.177Z,27.18
2022-08-05T12:38:38.239Z,26.71
2022-08-05T12:41:13.807Z,25.76
2022-08-05T12:43:52.880Z,26.25
2022-08-05T12:46:29.245Z,26.78
2022-08-05T12:48:59.342Z,26.22
2022-08-05T12:52:12.955Z,26.60
2022-08-05T12:54:23.535Z,26.45
2022-08-05T12:56:53.439Z,26.72
2022-08-05T12:59:46.654Z,26.95
2022-08-05T13:02:14.123Z,27.26
2022-08-05T13:04:54.383Z,27.92
2022-08-05T13:07:56.129Z,28.39
2022-08-05T13:10:13.853Z,27.61
2022-08-05T13:12:57.108Z,27.15
2022-08-05T13:15:41.310Z,26.81
2022-08-05T13:18:19.792Z,26.99
2022-08-05T13:20:49.041Z,27.28
2022-08-05T13:23:22.142Z,27.34
2022-08-05T13:25:59.513Z,27.80
2022-08-05T13:28:29.698Z,27.51
2022-08-05T13:31:00.185Z,27.41
2022-08-05T13:34:22.548Z,26.55
2022-08-05T13:36:29.944Z,26.75
2022-08-05T13:38:57.837Z,27.48
2022-08-05T13:41:25.872Z,26.93
2022-08-05T13:44:06.180Z,27.22
2022-08-05T13:46:43.751Z,27.14
2022-08-05T13:49:23.013Z,27.72
2022-08-05T13:51:51.244Z,27.56
2022-08-05T13:54:25.084Z,27.91
2022-08-05T13:56:53.632Z,27.55
2022-08-05T13:59:24.358Z,27.52
2022-08-05T14:01:57.967Z,27.34
2022-08-05T14:04:49.827Z,28.15
2022-08-05T14:07:25.778Z,26.99
2022-08-05T14:10:12.329Z,27.27
2022-08-05T14:12:42.946Z,27.63
2022-08-05T14:16:07.937Z,27.36
2022-08-05T14:18:15.117Z,26.98
2022-08-05T14:20:54.896Z,26.99
2022-08-05T14:23:24.816Z,27.87
2022-08-05T14:25:54.522Z,27.85
2022-08-05T14:28:27.787Z,27.36
2022-08-05T14:30:56.083Z,27.68
2022-08-05T14:33:24.367Z,27.34
2022-08-05T14:35:54.498Z,27.63
2022-08-05T14:38:32.788Z,26.84
2022-08-05T14:41:06.581Z,26.59
2022-08-05T14:43:59.722Z,26.93
2022-08-05T14:46:28.423Z,27.04
2022-08-05T14:48:58.871Z,27.10
2022-08-05T14:51:31.077Z,26.47
2022-08-05T14:54:26.371Z,26.69
2022-08-05T14:56:47.217Z,26.69
2022-08-05T14:59:15.598Z,26.22
2022-08-05T15:01:47.980Z,26.82
2022-08-05T15:04:17.202Z,26.56
2022-08-05T15:06:49.471Z,26.75
2022-08-05T15:09:50.523Z,26.64
2022-08-05T15:12:06.835Z,26.52
2022-08-05T15:14:48.401Z,26.65
2022-08-05T15:17:45.861Z,26.86
2022-08-05T15:20:06.530Z,26.47
2022-08-05T15:22:39.439Z,25.97
2022-08-05T15:25:11.997Z,26.26
2022-08-05T15:27:42.953Z,25.90
2022-08-05T15:30:19.952Z,25.67
2022-08-05T15:32:47.741Z,25.14
2022-08-05T15:35:15.504Z,25.86
2022-08-05T15:38:33.291Z,26.35
2022-08-05T15:40:58.699Z,26.02
2022-08-05T15:43:21.517Z,26.02
2022-08-05T15:45:59.758Z,26.39
2022-08-05T15:48:28.918Z,26.16
2022-08-05T15:50:56.678Z,26.29
2022-08-05T15:53:26.304Z,26.00
2022-08-05T15:56:01.905Z,25.94
2022-08-05T15:58:35.489Z,25.46
2022-08-05T16:01:17.126Z,25.47
2022-08-05T16:03:50.288Z,24.96
2022-08-05T16:06:19.909Z,25.39
2022-08-05T16:08:55.328Z,25.14
2022-08-05T16:11:42.441Z,25.11
2022-08-05T16:14:17.286Z,24.74
2022-08-05T16:16:46.153Z,24.64
2022-08-05T16:19:18.924Z,24.56
2022-08-05T16:22:01.058Z,24.19
2022-08-05T16:24:40.723Z,24.64
2022-08-05T16:27:09.921Z,25.06
2022-08-05T16:29:50.076Z,24.59
2022-08-05T16:32:23.271Z,24.92
2022-08-05T16:34:57.712Z,24.53
2022-08-05T16:38:03.529Z,24.61
2022-08-05T16:40:28.820Z,24.41
2022-08-05T16:42:57.593Z,24.62
2022-08-05T16:46:07.730Z,24.52
2022-08-05T16:48:25.908Z,24.34
2022-08-05T16:51:00.905Z,24.59
2022-08-05T16:54:03.437Z,24.26
2022-08-05T16:56:18.065Z,24.06
2022-08-05T16:58:47.486Z,24.16
2022-08-05T17:01:15.587Z,24.25
2022-08-05T17:03:43.665Z,24.07
2022-08-05T17:06:11.757Z,23.71
2022-08-05T17:08:52.928Z,23.64
2022-08-05T17:11:25.275Z,23.55
2022-08-05T17:14:00.189Z,23.52
2022-08-05T17:16:36.733Z,23.21
2022-08-05T17:19:07.165Z,23.49
2022-08-05T17:21:39.694Z,23.34
2022-08-05T17:24:18.722Z,23.33
2022-08-05T17:26:59.639Z,23.43
2022-08-05T17:29:33.269Z,23.07
2022-08-05T17:32:02.123Z,22.84
2022-08-05T17:34:32.219Z,22.81
2022-08-05T17:37:02.648Z,22.74
2022-08-05T17:39:34.434Z,23.11
2022-08-05T17:42:17.352Z,23.00
2022-08-05T17:44:50.144Z,23.19
2022-08-05T17:47:22.295Z,23.15
2022-08-05T17:50:00.157Z,22.43
2022-08-05T17:52:32.819Z,22.62
2022-08-05T17:55:04.056Z,22.79
2022-08-05T17:57:39.842Z,22.60
2022-08-05T18:00:16.546Z,22.69
2022-08-05T18:02:44.421Z,22.78
2022-08-05T18:05:16.659Z,22.75
2022-08-05T18:07:44.978Z,22.40
2022-08-05T18:10:20.855Z,22.51
2022-08-05T18:12:50.828Z,22.34
2022-08-05T18:15:18.704Z,22.60
2022-08-05T18:18:01.355Z,22.39
2022-08-05T18:20:32.758Z,22.16
2022-08-05T18:23:09.008Z,21.88
2022-08-05T18:25:39.594Z,22.16
2022-08-05T18:28:17.437Z,22.50
2022-08-05T18:30:45.858Z,22.39
2022-08-05T18:33:23.121Z,22.30
2022-08-05T18:36:03.790Z,22.08
2022-08-05T18:38:35.850Z,22.15
2022-08-05T18:41:56.736Z,21.84
2022-08-05T18:43:53.276Z,21.78
2022-08-05T18:46:21.267Z,21.76
2022-08-05T18:48:53.927Z,21.71
2022-08-05T18:52:05.877Z,21.90
2022-08-05T18:54:28.338Z,21.72
2022-08-05T18:56:59.900Z,21.44
2022-08-05T18:59:43.267Z,21.62
2022-08-05T19:02:27.898Z,21.64
2022-08-05T19:05:03.174Z,21.17
2022-08-05T19:07:47.994Z,21.24
2022-08-05T19:10:16.369Z,21.59
2022-08-05T19:12:46.041Z,21.47
2022-08-05T19:15:57.819Z,21.34
2022-08-05T19:18:10.065Z,21.16
2022-08-05T19:20:46.588Z,21.02
2022-08-05T19:24:04.561Z,21.10
2022-08-05T19:26:02.945Z,20.90
2022-08-05T19:28:31.110Z,20.76
2022-08-05T19:31:05.013Z,20.89
2022-08-05T19:33:36.356Z,20.75
2022-08-05T19:36:06.501Z,20.61
2022-08-05T19:38:35.675Z,20.82
2022-08-05T19:41:06.833Z,20.54
2022-08-05T19:44:07.011Z,20.43
2022-08-05T19:46:29.550Z,20.34
2022-08-05T19:49:02.802Z,20.18
2022-08-05T19:52:05.364Z,20.39
2022-08-05T19:54:25.606Z,20.19
2022-08-05T19:56:58.747Z,20.02
2022-08-05T19:59:56.657Z,20.16
2022-08-05T20:02:17.621Z,20.26
2022-08-05T20:04:45.946Z,19.85
2022-08-05T20:07:14.174Z,20.05
2022-08-05T20:09:54.697Z,20.09
2022-08-05T20:12:25.264Z,20.18
2022-08-05T20:14:53.603Z,19.83
2022-08-05T20:17:23.526Z,19.82
2022-08-05T20:19:57.655Z,19.93
2022-08-05T20:22:26.957Z,19.83
2022-08-05T20:24:55.763Z,19.70
2022-08-05T20:27:26.394Z,19.44
2022-08-05T20:29:57.759Z,19.57
2022-08-05T20:32:28.440Z,19.67
2022-08-05T20:34:56.330Z,19.57
2022-08-05T20:38:05.832Z,19.40
2022-08-05T20:40:13.250Z,19.39
2022-08-05T20:42:41.125Z,19.34
2022-08-05T20:45:11.823Z,19.30
2022-08-05T20:47:40.973Z,19.42
2022-08-05T20:50:11.488Z,19.36
2022-08-05T20:52:41.949Z,19.28
2022-08-05T20:55:56.779Z,19.29
2022-08-05T20:57:58.148Z,19.30
2022-08-05T21:00:52.018Z,19.26
2022-08-05T21:03:18.461Z,19.53
2022-08-05T21:05:54.917Z,19.18
2022-08-05T21:08:33.106Z,19.16
2022-08-05T21:11:10.408Z,19.10
2022-08-05T21:13:56.018Z,19.22
2022-08-05T21:16:29.963Z,19.10
2022-08-05T21:19:01.109Z,19.07
2022-08-05T21:21:39.391Z,18.99
2022-08-05T21:24:12.697Z,18.96
2022-08-05T21:26:41.379Z,18.96
2022-08-05T21:29:12.627Z,19.03
2022-08-05T21:31:44.854Z,18.87
2022-08-05T21:34:15.753Z,18.91
2022-08-05T21:36:43.498Z,18.96
2022-08-05T21:39:16.502Z,18.98
2022-08-05T21:41:52.814Z,18.89
2022-08-05T21:44:27.047Z,18.84
2022-08-05T21:46:57.981Z,18.83
2022-08-05T21:50:00.322Z,18.83
2022-08-05T21:52:28.517Z,18.80
2022-08-05T21:54:56.995Z,18.61
2022-08-05T21:57:32.874Z,18.59
2022-08-05T22:00:05.747Z,18.52
2022-08-05T22:02:35.043Z,18.49
2022-08-05T22:05:04.789Z,18.40
2022-08-05T22:07:40.066Z,18.21
2022-08-05T22:10:26.701Z,18.36
2022-08-05T22:12:55.223Z,18.12
2022-08-05T22:16:00.285Z,18.11
2022-08-05T22:18:14.471Z,18.16
2022-08-05T22:20:44.349Z,18.07
2022-08-05T22:24:03.359Z,17.91
2022-08-05T22:26:36.672Z,17.71
2022-08-05T22:29:04.681Z,17.68
2022-08-05T22:31:44.728Z,17.80
2022-08-05T22:34:25.570Z,17.64
2022-08-05T22:36:58.842Z,17.44
2022-08-05T22:39:32.598Z,17.64
2022-08-05T22:42:10.590Z,17.56
2022-08-05T22:44:39.731Z,17.54
2022-08-05T22:47:08.091Z,17.61
2022-08-05T22:50:19.513Z,17.62
2022-08-05T22:52:32.210Z,17.35
2022-08-05T22:55:00.703Z,17.42
2022-08-05T22:57:36.198Z,17.30
2022-08-05T23:00:07.817Z,17.23
2022-08-05T23:02:46.643Z,17.14
2022-08-05T23:05:14.938Z,17.19
2022-08-05T23:07:48.361Z,17.07
2022-08-05T23:10:20.224Z,16.95
2022-08-05T23:12:51.578Z,16.94
2022-08-05T23:15:29.158Z,16.81
2022-08-05T23:18:00.737Z,16.86
2022-08-05T23:20:32.205Z,16.82
2022-08-05T23:23:05.668Z,17.01
2022-08-05T23:25:53.200Z,16.88
2022-08-05T23:28:22.595Z,16.75
2022-08-05T23:30:53.361Z,16.55
2022-08-05T23:34:03.008Z,16.74
2022-08-05T23:36:13.625Z,16.67
2022-08-05T23:38:43.552Z,16.58
2022-08-05T23:41:12.091Z,16.73
2022-08-05T23:44:04.841Z,16.68
2022-08-05T23:46:28.772Z,16.63
2022-08-05T23:49:00.567Z,16.43
2022-08-05T23:51:54.328Z,16.47
2022-08-05T23:54:26.611Z,16.49
2022-08-05T23:57:04.051Z,16.56
